Create Custom Reports and Graphics: Custom Report

Last 6 Observations

Last 30 Minutes (5-Min)

5 Minute Data | America/Los_Angeles
as of 9/6/26 8:57 AM PDT
Date & Time Wind Spd (mph) Wind Dir (°) Wind Gust (mph) Wind Spd Sonic (mph) Wind Dir Sonic (°) Wind Gust Sonic (mph)
9/6/26 - 0855 27.4 S | 191 34.4 27.1 SW | 218 31.5
9/6/26 - 0850 27.3 SSW | 194 36.7 27.3 SW | 219 33.1
9/6/26 - 0845 28.8 SSW | 202 35.7 28.7 SW | 219 33.6
9/6/26 - 0840 27.5 SSW | 206 35.5 27.7 SW | 220 36.0
9/6/26 - 0835 29.2 SSW | 194 37.2 30.4 SW | 218 34.4
9/6/26 - 0830 29.6 SW | 219 38.6 30.8 SW | 216 35.3
Max 29.6 - 38.6 30.8 - 36.0
Avg 28.3 - 36.3 28.7 - 34.0
Min 27.3 - 34.4 27.1 - 31.5

Top Stn/Summit - 11,053ft

Current Conditions

9/6/26 8:45 AM (-07:00)
Updated Every 15 Minutes
Wind Spd 28.5 mph   0.7
Wind Spd Sonic 28.9 mph   0.3
Wind Dir SSW | 201 °
Wind Dir Sonic SW | 219 °
Wind Gust 37.2 mph   1.5
Wind Gust Sonic 36.0 mph   3.4
Temp 38.1 °F   3.1
WindChill 25.4 °F   4.1
RH 53 %   13
Dew Pt 22.4 °F   2.2
Wet Bulb 32.5 °F   1.2
Daily Max Wind 47.6 mph   5.4
Time of Max Wind 0114
Max Wind Dir SW | 217 °
Daily Max Gust Sonic 45.9 mph   4.7
Time Wind Max Sonic 0102
Dir Max Gust Sonic SW | 215 Degrees
Daily Max Temp 38.5 °F   2.9
Daily Min Temp 32.5 °F   2.6
Yest MaxT 45.1 °F
Yest MinT 30.0 °F
Yest MaxGst 53.8 mph

Last 24 Hours

Top Stn/Summit - 11,053ft

15 Minute Data | America/Los_Angeles
as of 9/6/26 8:57 AM PDT
Date & Time Temp (°F) WindChill (°F) RH (%) Dew Pt (°F) Wet Bulb (°F) Wind Spd (mph) Wind Spd Sonic (mph) Wind Dir (°) Wind Dir Sonic (°) Wind Gust (mph) Wind Gust Sonic (mph) Daily Min Temp (°F) Daily Max Temp (°F) Daily Max Wind (mph) Daily Max Gust Sonic (mph)
9/6/26 - 0845 38.1 25.4 53 22.4 32.5 28.5 28.9 SSW | 201 SW | 219 37.2 36.0 32.5 38.5 47.6 45.9
9/6/26 - 0830 38.0 25.0 51 21.3 32.1 29.6 30.5 SSW | 209 SW | 217 38.6 36.2 32.5 38.4 47.6 45.9
9/6/26 - 0815 36.9 23.5 54 21.7 31.6 29.8 30.8 SW | 217 SW | 220 39.1 37.1 32.5 37.4 47.6 45.9
9/6/26 - 0800 37.0 23.4 53 21.3 31.5 30.8 31.6 SSW | 194 SW | 221 40.2 39.4 32.5 37.3 47.6 45.9
9/6/26 - 0745 36.7 23.1 51 20.4 31.1 30.2 30.6 SW | 223 SW | 220 39.8 36.9 32.5 37.2 47.6 45.9
9/6/26 - 0730 35.8 21.8 52 20.0 30.4 30.9 31.7 SW | 223 SW | 220 40.2 36.9 32.5 36.1 47.6 45.9
9/6/26 - 0715 35.4 20.9 52 19.7 30.1 31.1 32.5 SW | 224 SW | 220 43.5 40.0 32.5 35.8 47.6 45.9
9/6/26 - 0700 34.8 20.5 54 19.6 29.6 30.5 31.4 SW | 224 SW | 222 38.8 39.2 32.5 35.1 47.6 45.9
9/6/26 - 0645 34.7 20.1 52 18.8 29.4 31.8 32.7 SW | 220 SW | 219 41.1 39.8 32.5 35.0 47.6 45.9
9/6/26 - 0630 34.8 20.2 50 18.1 29.3 33.1 34.2 SW | 218 SW | 216 40.6 39.2 32.5 35.0 47.6 45.9
9/6/26 - 0615 34.5 19.9 50 17.9 29.1 32.1 33.3 SW | 218 SW | 217 40.4 38.2 32.5 35.0 47.6 45.9
9/6/26 - 0600 34.7 20.1 49 17.7 29.1 32.7 34.6 SW | 218 SW | 216 40.7 39.6 32.5 35.0 47.6 45.9
9/6/26 - 0545 34.3 19.4 52 18.4 29.0 33.4 35.0 SW | 219 SW | 217 41.6 39.8 32.5 35.0 47.6 45.9
9/6/26 - 0530 34.9 20.1 50 18.0 29.3 33.6 35.1 SW | 219 SW | 216 43.1 42.3 32.5 35.0 47.6 45.9
9/6/26 - 0515 34.7 20.1 51 18.4 29.3 32.8 34.3 SW | 220 SW | 217 40.7 39.8 32.5 34.9 47.6 45.9
9/6/26 - 0500 34.5 19.6 53 19.1 29.4 33.1 34.4 SW | 217 SW | 215 42.4 40.3 32.5 34.9 47.6 45.9
9/6/26 - 0445 34.3 19.5 54 19.4 29.3 32.5 34.1 SW | 217 SW | 215 41.4 38.5 32.5 34.9 47.6 45.9
9/6/26 - 0430 34.6 19.8 53 19.1 29.4 33.2 34.7 SW | 217 SW | 215 41.9 39.4 32.5 34.9 47.6 45.9
9/6/26 - 0415 34.4 19.6 55 19.8 29.5 32.6 34.1 SW | 216 SW | 216 41.0 39.2 32.5 34.9 47.6 45.9
9/6/26 - 0400 34.5 20.0 54 19.5 29.5 32.1 33.3 SW | 221 SW | 217 39.5 37.6 32.5 34.9 47.6 45.9
9/6/26 - 0345 34.3 19.6 56 20.4 29.6 32.0 33.3 SW | 221 SW | 218 41.0 38.0 32.5 34.6 47.6 45.9
9/6/26 - 0330 33.9 19.0 60 21.7 29.7 32.7 34.4 SW | 223 SW | 218 40.8 40.0 32.5 34.1 47.6 45.9
9/6/26 - 0315 33.7 18.5 63 22.6 29.8 33.7 35.4 SW | 221 SW | 217 41.6 40.3 32.5 33.8 47.6 45.9
9/6/26 - 0300 33.4 18.0 67 23.8 30.0 34.3 36.3 SW | 221 SW | 217 42.4 41.2 32.5 33.6 47.6 45.9
9/6/26 - 0245 33.4 18.1 70 24.7 30.2 33.4 34.6 SW | 220 SW | 217 42.2 40.5 32.5 33.6 47.6 45.9
9/6/26 - 0230 33.3 17.8 73 25.4 30.4 34.0 35.0 SW | 221 SW | 218 43.4 40.9 32.5 33.5 47.6 45.9
9/6/26 - 0215 33.2 17.5 74 25.8 30.4 35.2 36.3 SW | 214 SW | 218 44.2 42.5 32.5 33.4 47.6 45.9
9/6/26 - 0200 33.1 17.2 76 26.3 30.6 35.8 36.9 SSW | 195 SW | 217 44.7 43.2 32.5 33.3 47.6 45.9
9/6/26 - 0145 33.0 16.9 78 26.8 30.7 36.9 38.2 S | 178 SW | 218 47.0 45.0 32.5 33.3 47.6 45.9
9/6/26 - 0130 32.6 16.4 81 27.4 30.7 36.9 39.2 SSW | 194 SW | 217 46.4 45.4 32.5 32.8 47.6 45.9
9/6/26 - 0115 32.6 16.2 83 28.0 30.8 37.9 40.8 SW | 216 SW | 216 47.6 45.9 32.5 32.8 47.6 45.9
9/6/26 - 0100 32.7 16.6 83 28.1 31.0 36.6 38.6 SW | 222 SW | 216 46.3 43.4 30.0 45.1 53.8 54.6
9/6/26 - 0045 32.7 16.7 83 28.0 30.9 35.6 37.5 SW | 222 SW | 218 46.3 44.7 30.0 45.1 53.8 54.6
9/6/26 - 0030 32.9 16.8 82 28.0 31.0 36.4 38.4 SW | 215 SW | 216 45.8 44.5 30.0 45.1 53.8 54.6
9/6/26 - 0015 33.1 16.9 81 28.0 31.1 37.4 40.4 SW | 218 SW | 215 48.2 45.9 30.0 45.1 53.8 54.6
9/6/26 - 0000 33.3 17.4 82 28.4 31.4 36.6 39.3 SW | 220 SW | 216 45.5 45.9 30.0 45.1 53.8 54.6
9/5/26 - 2345 33.3 17.5 83 28.8 31.6 36.1 38.3 SW | 220 SW | 215 46.3 44.5 30.0 45.1 53.8 54.6
9/5/26 - 2330 33.4 17.6 86 29.6 31.9 36.5 39.3 SW | 219 SW | 214 45.5 43.8 30.0 45.1 53.8 54.6
9/5/26 - 2315 33.4 17.6 89 30.5 32.2 36.2 38.3 SW | 221 SW | 215 45.8 43.2 30.0 45.1 53.8 54.6
9/5/26 - 2300 33.5 17.8 91 31.2 32.6 36.0 37.5 SW | 222 SW | 216 45.6 43.2 30.0 45.1 53.8 54.6
9/5/26 - 2245 33.8 18.2 91 31.4 32.8 35.6 36.8 SW | 223 SW | 217 45.5 42.3 30.0 45.1 53.8 54.6
9/5/26 - 2230 33.7 18.0 92 31.7 32.9 36.6 38.4 SW | 220 SW | 217 46.6 44.3 30.0 45.1 53.8 54.6
9/5/26 - 2215 33.7 17.8 95 32.3 33.1 37.0 38.8 S | 180 SW | 216 48.2 45.9 30.0 45.1 53.8 54.6
9/5/26 - 2200 33.6 17.5 99 33.4 33.5 38.7 40.8 SSW | 198 SW | 216 48.4 47.2 30.0 45.1 53.8 54.6
9/5/26 - 2145 33.6 17.5 100 33.6 33.6 38.8 41.3 N | 0 SW | 215 48.2 47.0 30.0 45.1 53.8 54.6
9/5/26 - 2130 33.9 18.2 100 33.9 33.9 37.7 40.8 N | 8 SW | 214 46.4 45.6 30.0 45.1 53.8 54.6
9/5/26 - 2115 34.1 18.5 100 34.1 34.1 35.8 38.4 NE | 40 SW | 214 46.9 44.1 30.0 45.1 53.8 54.6
9/5/26 - 2100 34.3 18.9 100 34.3 34.3 36.4 37.8 NNE | 17 SW | 216 44.9 43.4 30.0 45.1 53.8 54.6
9/5/26 - 2045 34.4 18.9 100 34.3 34.4 37.4 39.8 NE | 38 SW | 216 46.6 45.4 30.0 45.1 53.8 54.6
9/5/26 - 2030 34.7 19.3 98 34.2 34.5 37.0 39.3 N | 5 SW | 215 46.4 44.3 30.0 45.1 53.8 54.6
9/5/26 - 2015 35.0 19.8 96 34.0 34.6 36.2 37.8 NNW | 338 SW | 217 46.4 43.4 30.0 45.1 53.8 54.6
9/5/26 - 2000 35.4 20.4 94 33.9 34.8 36.4 38.0 NNE | 12 SW | 218 45.4 43.8 30.0 45.1 53.8 54.6
9/5/26 - 1945 35.9 20.9 92 33.7 35.0 37.4 38.2 NNW | 344 SW | 220 48.2 46.3 30.0 45.1 53.8 54.6
9/5/26 - 1930 36.7 22.3 90 34.0 35.6 35.9 36.5 SW | 216 SW | 220 46.1 43.8 30.0 45.1 53.8 54.6
9/5/26 - 1915 37.5 23.0 88 34.2 36.2 37.4 38.0 N | 7 SW | 218 49.8 46.5 30.0 45.1 53.8 54.6
9/5/26 - 1900 38.1 24.0 87 34.4 36.6 36.3 36.9 WSW | 244 SW | 223 48.7 48.1 30.0 45.1 53.8 54.6
9/5/26 - 1845 38.7 24.9 86 34.8 37.1 33.9 33.6 S | 190 SW | 227 49.2 45.9 30.0 45.1 53.8 54.6
9/5/26 - 1830 39.3 25.4 84 35.1 37.6 38.2 38.3 NE | 37 SW | 222 50.9 49.9 30.0 45.1 53.8 54.6
9/5/26 - 1815 39.8 25.9 84 35.3 38.0 38.4 38.7 NNE | 16 SW | 223 52.8 49.0 30.0 45.1 53.8 54.6
9/5/26 - 1800 40.0 26.3 84 35.7 38.2 37.2 37.3 NNE | 13 SW | 225 53.4 52.1 30.0 45.1 53.8 54.6
9/5/26 - 1745 40.0 26.7 84 35.6 38.2 35.5 34.9 NNE | 32 SW | 230 48.3 51.7 30.0 45.1 53.8 54.6
9/5/26 - 1730 40.3 27.0 84 35.8 38.5 35.9 34.9 ESE | 113 SW | 232 50.8 54.6 30.0 45.1 53.8 54.6
9/5/26 - 1715 40.6 27.4 83 36.0 38.7 35.2 34.6 NNE | 22 SW | 231 51.6 50.8 30.0 45.1 53.8 53.7
9/5/26 - 1700 40.4 27.1 85 36.3 38.7 35.1 34.0 N | 7 SW | 232 50.0 53.2 30.0 45.1 53.8 53.7
9/5/26 - 1645 40.8 27.8 84 36.2 39.0 35.5 35.0 NNE | 32 SW | 228 49.8 52.1 30.0 45.1 53.8 53.7
9/5/26 - 1630 41.5 28.4 81 36.1 39.3 37.2 36.3 NNE | 22 SW | 228 53.2 51.2 30.0 45.1 53.8 53.7
9/5/26 - 1615 42.2 29.5 77 35.7 39.5 35.8 34.9 S | 181 SW | 231 53.8 53.7 30.0 45.1 53.8 53.7
9/5/26 - 1600 42.8 30.7 75 35.4 39.7 32.9 31.6 SW | 225 SW | 232 47.8 49.7 30.0 45.1 52.4 51.7
9/5/26 - 1545 43.1 31.3 73 35.0 39.7 31.9 30.5 SSW | 211 SW | 236 46.7 50.1 30.0 45.1 52.4 51.7
9/5/26 - 1530 43.2 31.3 72 34.7 39.6 33.8 32.7 SSW | 210 SW | 232 47.6 49.7 30.0 45.1 52.4 51.7
9/5/26 - 1515 43.2 30.9 72 34.6 39.6 34.5 33.7 WSW | 258 SW | 230 52.4 51.7 30.0 45.1 52.4 51.7
9/5/26 - 1500 43.9 32.2 69 34.4 39.8 33.3 32.0 SSW | 212 SW | 231 49.2 48.5 30.0 45.1 50.5 50.1
9/5/26 - 1445 44.0 32.1 69 34.4 39.9 37.1 37.4 WSW | 242 SW | 223 50.1 50.1 30.0 45.1 50.5 50.1
9/5/26 - 1430 43.7 31.9 68 33.8 39.5 34.2 33.9 SW | 222 SW | 223 48.9 48.1 30.0 45.1 50.5 48.1
9/5/26 - 1415 44.1 32.4 67 33.8 39.7 33.3 32.2 SW | 223 SW | 226 50.5 47.9 30.0 45.1 50.5 47.9
9/5/26 - 1400 44.2 32.8 67 34.1 39.9 32.0 32.7 SW | 225 SW | 223 46.0 47.2 30.0 45.1 46.0 47.4
9/5/26 - 1345 44.0 33.0 69 34.4 39.9 30.6 30.8 SW | 220 SW | 225 42.3 41.8 30.0 45.1 44.0 47.4
9/5/26 - 1330 43.9 32.9 69 34.3 39.8 31.1 31.7 SW | 222 SW | 221 40.4 43.4 30.0 45.1 44.0 47.4
9/5/26 - 1315 43.7 32.4 69 34.0 39.6 31.1 31.4 SW | 218 SW | 223 43.8 43.8 30.0 45.1 44.0 47.4
9/5/26 - 1300 43.9 32.8 66 33.3 39.4 29.6 29.3 SW | 222 SW | 226 44.0 47.4 30.0 45.1 44.0 47.4
9/5/26 - 1245 43.9 33.1 65 32.9 39.3 28.4 28.0 SW | 219 SW | 228 40.6 41.8 30.0 45.1 42.3 41.8
9/5/26 - 1230 43.7 32.9 64 32.2 38.9 28.0 27.8 SW | 221 SW | 224 40.4 38.7 30.0 45.1 42.3 41.2
9/5/26 - 1215 44.6 33.8 61 31.8 39.2 30.3 30.1 SW | 217 SW | 221 42.3 40.7 30.0 45.1 42.3 41.2
9/5/26 - 1200 43.8 33.2 57 29.7 38.0 28.2 28.3 SW | 220 SW | 217 37.2 40.7 30.0 44.3 42.2 41.2
9/5/26 - 1145 43.7 32.8 58 29.7 38.0 28.9 29.2 SW | 214 SW | 214 40.5 39.4 30.0 44.2 42.2 41.2
9/5/26 - 1130 42.6 31.7 59 29.4 37.3 28.0 28.9 SW | 216 SW | 214 36.3 35.8 30.0 43.8 42.2 41.2
9/5/26 - 1115 42.3 31.5 57 28.3 36.7 25.9 26.7 SW | 216 SW | 214 35.2 33.3 30.0 42.5 42.2 41.2
9/5/26 - 1100 41.8 30.8 58 28.1 36.4 26.5 27.6 SSW | 213 SSW | 211 34.4 32.2 30.0 42.2 42.2 41.2
9/5/26 - 1045 40.5 29.3 60 27.6 35.5 25.3 26.0 SSW | 213 SSW | 213 32.7 31.1 30.0 41.2 42.2 41.2
9/5/26 - 1030 39.9 28.4 60 27.0 34.9 25.2 25.8 SW | 222 SW | 215 33.3 31.1 30.0 40.4 42.2 41.2
9/5/26 - 1015 38.8 26.8 61 26.5 34.1 25.5 27.0 SSW | 209 SW | 214 35.1 33.3 30.0 39.2 42.2 41.2
9/5/26 - 1000 38.0 25.8 61 25.8 33.4 25.8 26.8 SW | 218 SW | 216 33.7 31.3 30.0 38.6 42.2 41.2
9/5/26 - 0945 37.2 25.3 62 25.2 32.8 23.2 23.7 SW | 217 SW | 214 30.3 28.0 30.0 37.7 42.2 41.2
9/5/26 - 0930 36.5 24.2 63 25.0 32.3 24.5 25.2 SW | 231 SSW | 213 30.7 29.3 30.0 37.0 42.2 41.2
9/5/26 - 0915 35.6 22.7 64 24.8 31.7 25.1 25.8 WNW | 285 SSW | 212 32.6 30.6 30.0 35.9 42.2 41.2
9/5/26 - 0900 35.4 22.3 65 24.8 31.5 26.0 27.2 WNW | 297 SSW | 212 33.2 31.8 30.0 35.9 42.2 41.2
9/5/26 - 0845 34.9 21.3 66 24.7 31.2 27.8 28.6 NNW | 340 SSW | 211 35.8 32.7 30.0 35.6 42.2 41.2
Max 44.6 33.8 100 36.3 39.9 38.8 41.3 - - 53.8 54.6 32.5 45.1 53.8 54.6
Avg 37.4 23.5 72 28.6 34.1 33.1 34.0 - - 43.7 42.5 - - - -
Min 32.6 16.2 49 17.7 29.0 23.2 23.7 - - 30.3 28.0 30.0 32.8 42.2 41.2
Calm: 0.0%